sensor_id;sensor_type;location;lat;lon;timestamp;P1;durP1;ratioP1;P2;durP2;ratioP2
59520;SDS011;54898;40.918;14.476;2022-08-19T00:02:12;39.85;;;10.73;;
59520;SDS011;54898;40.918;14.476;2022-08-19T00:04:38;43.10;;;10.80;;
59520;SDS011;54898;40.918;14.476;2022-08-19T00:07:06;44.88;;;10.75;;
59520;SDS011;54898;40.918;14.476;2022-08-19T00:09:32;42.35;;;11.63;;
59520;SDS011;54898;40.918;14.476;2022-08-19T00:11:59;42.42;;;11.50;;
59520;SDS011;54898;40.918;14.476;2022-08-19T00:14:25;39.85;;;10.82;;
59520;SDS011;54898;40.918;14.476;2022-08-19T00:16:53;37.50;;;10.88;;
59520;SDS011;54898;40.918;14.476;2022-08-19T00:19:20;44.00;;;11.25;;
59520;SDS011;54898;40.918;14.476;2022-08-19T00:21:46;35.13;;;11.13;;
59520;SDS011;54898;40.918;14.476;2022-08-19T00:24:13;35.58;;;10.77;;
59520;SDS011;54898;40.918;14.476;2022-08-19T00:26:40;36.60;;;10.23;;
59520;SDS011;54898;40.918;14.476;2022-08-19T00:29:08;37.78;;;10.88;;
59520;SDS011;54898;40.918;14.476;2022-08-19T00:31:34;33.88;;;9.93;;
59520;SDS011;54898;40.918;14.476;2022-08-19T00:34:02;39.45;;;10.30;;
59520;SDS011;54898;40.918;14.476;2022-08-19T00:36:28;43.70;;;10.18;;
59520;SDS011;54898;40.918;14.476;2022-08-19T00:38:55;42.75;;;10.23;;
59520;SDS011;54898;40.918;14.476;2022-08-19T00:41:21;30.75;;;9.85;;
59520;SDS011;54898;40.918;14.476;2022-08-19T00:43:59;39.40;;;10.55;;
59520;SDS011;54898;40.918;14.476;2022-08-19T00:46:25;41.40;;;9.35;;
59520;SDS011;54898;40.918;14.476;2022-08-19T00:48:51;34.78;;;8.80;;
59520;SDS011;54898;40.918;14.476;2022-08-19T00:51:19;35.13;;;8.65;;
59520;SDS011;54898;40.918;14.476;2022-08-19T00:53:45;35.38;;;8.50;;
59520;SDS011;54898;40.918;14.476;2022-08-19T00:56:11;28.75;;;8.25;;
59520;SDS011;54898;40.918;14.476;2022-08-19T00:58:38;36.80;;;8.57;;
59520;SDS011;54898;40.918;14.476;2022-08-19T01:01:05;38.03;;;8.80;;
59520;SDS011;54898;40.918;14.476;2022-08-19T01:03:33;35.03;;;8.25;;
59520;SDS011;54898;40.918;14.476;2022-08-19T01:05:59;36.47;;;9.07;;
59520;SDS011;54898;40.918;14.476;2022-08-19T01:08:27;37.53;;;8.75;;
59520;SDS011;54898;40.918;14.476;2022-08-19T01:10:54;37.88;;;8.25;;
59520;SDS011;54898;40.918;14.476;2022-08-19T01:13:22;38.58;;;8.70;;
59520;SDS011;54898;40.918;14.476;2022-08-19T01:15:49;41.60;;;8.18;;
59520;SDS011;54898;40.918;14.476;2022-08-19T01:18:17;43.85;;;9.48;;
59520;SDS011;54898;40.918;14.476;2022-08-19T01:20:44;38.55;;;8.32;;
59520;SDS011;54898;40.918;14.476;2022-08-19T01:23:13;37.50;;;8.55;;
59520;SDS011;54898;40.918;14.476;2022-08-19T01:25:40;42.57;;;8.57;;
59520;SDS011;54898;40.918;14.476;2022-08-19T01:28:07;35.25;;;8.85;;
59520;SDS011;54898;40.918;14.476;2022-08-19T01:30:34;37.10;;;8.18;;
59520;SDS011;54898;40.918;14.476;2022-08-19T01:33:01;34.75;;;8.73;;
59520;SDS011;54898;40.918;14.476;2022-08-19T01:35:28;38.08;;;8.60;;
59520;SDS011;54898;40.918;14.476;2022-08-19T01:37:56;47.35;;;9.23;;
59520;SDS011;54898;40.918;14.476;2022-08-19T01:40:25;39.08;;;9.32;;
59520;SDS011;54898;40.918;14.476;2022-08-19T01:42:52;35.05;;;9.50;;
59520;SDS011;54898;40.918;14.476;2022-08-19T01:45:19;39.80;;;9.75;;
59520;SDS011;54898;40.918;14.476;2022-08-19T01:47:46;33.15;;;9.30;;
59520;SDS011;54898;40.918;14.476;2022-08-19T01:50:12;37.92;;;9.82;;
59520;SDS011;54898;40.918;14.476;2022-08-19T01:52:39;38.67;;;9.50;;
59520;SDS011;54898;40.918;14.476;2022-08-19T01:55:06;36.67;;;9.27;;
59520;SDS011;54898;40.918;14.476;2022-08-19T01:57:34;40.42;;;9.23;;
59520;SDS011;54898;40.918;14.476;2022-08-19T02:00:00;41.17;;;10.55;;
59520;SDS011;54898;40.918;14.476;2022-08-19T02:02:37;39.00;;;10.02;;
59520;SDS011;54898;40.918;14.476;2022-08-19T02:05:03;39.83;;;9.00;;
59520;SDS011;54898;40.918;14.476;2022-08-19T02:07:30;45.33;;;9.55;;
59520;SDS011;54898;40.918;14.476;2022-08-19T02:09:56;34.17;;;10.00;;
59520;SDS011;54898;40.918;14.476;2022-08-19T02:12:23;45.28;;;9.70;;
59520;SDS011;54898;40.918;14.476;2022-08-19T02:14:50;28.67;;;8.20;;
59520;SDS011;54898;40.918;14.476;2022-08-19T02:17:16;41.20;;;9.85;;
59520;SDS011;54898;40.918;14.476;2022-08-19T02:19:44;36.38;;;9.13;;
59520;SDS011;54898;40.918;14.476;2022-08-19T02:22:10;49.08;;;10.50;;
59520;SDS011;54898;40.918;14.476;2022-08-19T02:24:36;42.05;;;9.38;;
59520;SDS011;54898;40.918;14.476;2022-08-19T02:27:02;40.00;;;10.02;;
59520;SDS011;54898;40.918;14.476;2022-08-19T02:29:28;41.80;;;8.88;;
59520;SDS011;54898;40.918;14.476;2022-08-19T02:31:56;36.97;;;9.10;;
59520;SDS011;54898;40.918;14.476;2022-08-19T02:34:23;43.88;;;9.68;;
59520;SDS011;54898;40.918;14.476;2022-08-19T02:36:50;37.70;;;8.57;;
59520;SDS011;54898;40.918;14.476;2022-08-19T02:39:17;45.40;;;10.02;;
59520;SDS011;54898;40.918;14.476;2022-08-19T02:41:43;49.40;;;10.48;;
59520;SDS011;54898;40.918;14.476;2022-08-19T02:44:09;54.38;;;10.70;;
59520;SDS011;54898;40.918;14.476;2022-08-19T02:46:35;50.13;;;10.32;;
59520;SDS011;54898;40.918;14.476;2022-08-19T02:49:04;39.80;;;9.98;;
59520;SDS011;54898;40.918;14.476;2022-08-19T02:51:32;36.67;;;10.45;;
59520;SDS011;54898;40.918;14.476;2022-08-19T02:53:58;48.50;;;10.65;;
59520;SDS011;54898;40.918;14.476;2022-08-19T02:56:25;57.75;;;11.40;;
59520;SDS011;54898;40.918;14.476;2022-08-19T02:58:53;44.42;;;12.10;;
59520;SDS011;54898;40.918;14.476;2022-08-19T03:01:19;46.22;;;10.50;;
59520;SDS011;54898;40.918;14.476;2022-08-19T03:03:46;45.05;;;11.00;;
59520;SDS011;54898;40.918;14.476;2022-08-19T03:06:14;47.58;;;10.43;;
59520;SDS011;54898;40.918;14.476;2022-08-19T03:08:41;54.05;;;10.88;;
59520;SDS011;54898;40.918;14.476;2022-08-19T03:11:12;44.15;;;10.45;;
59520;SDS011;54898;40.918;14.476;2022-08-19T03:13:38;36.05;;;9.18;;
59520;SDS011;54898;40.918;14.476;2022-08-19T03:16:04;37.83;;;10.00;;
59520;SDS011;54898;40.918;14.476;2022-08-19T03:18:31;37.80;;;10.13;;
59520;SDS011;54898;40.918;14.476;2022-08-19T03:20:57;49.10;;;11.63;;
59520;SDS011;54898;40.918;14.476;2022-08-19T03:23:25;45.22;;;10.65;;
59520;SDS011;54898;40.918;14.476;2022-08-19T03:25:52;36.05;;;10.50;;
59520;SDS011;54898;40.918;14.476;2022-08-19T03:28:20;40.83;;;9.77;;
59520;SDS011;54898;40.918;14.476;2022-08-19T03:30:56;35.58;;;9.73;;
59520;SDS011;54898;40.918;14.476;2022-08-19T03:33:23;45.65;;;10.15;;
59520;SDS011;54898;40.918;14.476;2022-08-19T03:35:58;41.65;;;10.68;;
59520;SDS011;54898;40.918;14.476;2022-08-19T03:38:27;32.65;;;10.25;;
59520;SDS011;54898;40.918;14.476;2022-08-19T03:40:53;40.22;;;9.93;;
59520;SDS011;54898;40.918;14.476;2022-08-19T03:43:20;35.03;;;10.00;;
59520;SDS011;54898;40.918;14.476;2022-08-19T03:45:46;34.95;;;10.98;;
59520;SDS011;54898;40.918;14.476;2022-08-19T03:48:14;31.25;;;9.45;;
59520;SDS011;54898;40.918;14.476;2022-08-19T03:50:42;39.30;;;10.07;;
59520;SDS011;54898;40.918;14.476;2022-08-19T03:53:08;39.47;;;10.02;;
59520;SDS011;54898;40.918;14.476;2022-08-19T03:55:40;35.90;;;10.30;;
59520;SDS011;54898;40.918;14.476;2022-08-19T03:58:06;39.17;;;9.95;;
59520;SDS011;54898;40.918;14.476;2022-08-19T04:00:32;39.45;;;10.80;;
59520;SDS011;54898;40.918;14.476;2022-08-19T04:02:59;39.90;;;10.77;;
59520;SDS011;54898;40.918;14.476;2022-08-19T04:05:26;48.58;;;11.02;;
59520;SDS011;54898;40.918;14.476;2022-08-19T04:07:54;44.20;;;11.60;;
59520;SDS011;54898;40.918;14.476;2022-08-19T04:10:22;43.35;;;10.35;;
59520;SDS011;54898;40.918;14.476;2022-08-19T04:12:51;47.50;;;11.18;;
59520;SDS011;54898;40.918;14.476;2022-08-19T04:15:17;39.65;;;10.68;;
59520;SDS011;54898;40.918;14.476;2022-08-19T04:44:22;39.58;;;13.32;;
59520;SDS011;54898;40.918;14.476;2022-08-19T04:46:49;42.25;;;12.10;;
59520;SDS011;54898;40.918;14.476;2022-08-19T04:49:16;41.60;;;12.18;;
59520;SDS011;54898;40.918;14.476;2022-08-19T04:51:43;41.75;;;13.05;;
59520;SDS011;54898;40.918;14.476;2022-08-19T04:54:09;39.50;;;11.30;;
59520;SDS011;54898;40.918;14.476;2022-08-19T04:56:35;30.40;;;10.55;;
59520;SDS011;54898;40.918;14.476;2022-08-19T04:59:02;36.60;;;11.25;;
59520;SDS011;54898;40.918;14.476;2022-08-19T05:01:32;38.90;;;11.98;;
59520;SDS011;54898;40.918;14.476;2022-08-19T05:03:59;36.20;;;11.37;;
59520;SDS011;54898;40.918;14.476;2022-08-19T05:06:26;37.83;;;11.27;;
59520;SDS011;54898;40.918;14.476;2022-08-19T05:08:54;32.88;;;10.90;;
59520;SDS011;54898;40.918;14.476;2022-08-19T05:11:22;30.75;;;9.88;;
59520;SDS011;54898;40.918;14.476;2022-08-19T05:13:48;33.53;;;10.70;;
59520;SDS011;54898;40.918;14.476;2022-08-19T05:16:16;26.25;;;8.70;;
59520;SDS011;54898;40.918;14.476;2022-08-19T05:18:44;30.77;;;10.35;;
59520;SDS011;54898;40.918;14.476;2022-08-19T05:21:29;32.72;;;10.23;;
59520;SDS011;54898;40.918;14.476;2022-08-19T05:24:14;34.00;;;10.25;;
59520;SDS011;54898;40.918;14.476;2022-08-19T05:26:42;31.98;;;9.70;;
59520;SDS011;54898;40.918;14.476;2022-08-19T05:29:08;36.92;;;10.77;;
59520;SDS011;54898;40.918;14.476;2022-08-19T05:31:36;34.47;;;9.38;;
59520;SDS011;54898;40.918;14.476;2022-08-19T05:34:05;27.95;;;9.80;;
59520;SDS011;54898;40.918;14.476;2022-08-19T05:36:33;31.83;;;9.90;;
59520;SDS011;54898;40.918;14.476;2022-08-19T05:39:00;30.05;;;10.38;;
59520;SDS011;54898;40.918;14.476;2022-08-19T05:41:27;34.63;;;11.00;;
59520;SDS011;54898;40.918;14.476;2022-08-19T05:43:55;30.42;;;9.35;;
59520;SDS011;54898;40.918;14.476;2022-08-19T05:46:21;31.02;;;10.27;;
59520;SDS011;54898;40.918;14.476;2022-08-19T05:48:48;29.67;;;9.85;;
59520;SDS011;54898;40.918;14.476;2022-08-19T05:51:15;31.60;;;10.27;;
59520;SDS011;54898;40.918;14.476;2022-08-19T05:53:42;29.92;;;9.73;;
59520;SDS011;54898;40.918;14.476;2022-08-19T05:56:10;25.30;;;7.97;;
59520;SDS011;54898;40.918;14.476;2022-08-19T05:58:36;30.70;;;9.27;;
59520;SDS011;54898;40.918;14.476;2022-08-19T06:01:03;28.45;;;8.43;;
59520;SDS011;54898;40.918;14.476;2022-08-19T06:03:31;30.08;;;8.82;;
59520;SDS011;54898;40.918;14.476;2022-08-19T06:05:58;27.05;;;8.43;;
59520;SDS011;54898;40.918;14.476;2022-08-19T06:08:27;26.00;;;8.48;;
59520;SDS011;54898;40.918;14.476;2022-08-19T06:10:53;23.70;;;8.15;;
59520;SDS011;54898;40.918;14.476;2022-08-19T06:13:19;21.15;;;7.85;;
59520;SDS011;54898;40.918;14.476;2022-08-19T06:15:46;25.50;;;7.97;;
59520;SDS011;54898;40.918;14.476;2022-08-19T06:18:12;25.23;;;7.88;;
59520;SDS011;54898;40.918;14.476;2022-08-19T06:20:39;32.60;;;9.07;;
59520;SDS011;54898;40.918;14.476;2022-08-19T06:23:05;28.80;;;8.00;;
59520;SDS011;54898;40.918;14.476;2022-08-19T06:25:32;24.83;;;8.20;;
59520;SDS011;54898;40.918;14.476;2022-08-19T06:27:59;27.05;;;8.25;;
59520;SDS011;54898;40.918;14.476;2022-08-19T06:30:25;25.30;;;8.25;;
59520;SDS011;54898;40.918;14.476;2022-08-19T06:32:51;22.92;;;8.05;;
59520;SDS011;54898;40.918;14.476;2022-08-19T06:35:18;29.13;;;9.20;;
59520;SDS011;54898;40.918;14.476;2022-08-19T06:37:44;27.80;;;9.90;;
59520;SDS011;54898;40.918;14.476;2022-08-19T06:40:11;31.45;;;9.52;;
59520;SDS011;54898;40.918;14.476;2022-08-19T06:42:39;31.30;;;9.50;;
59520;SDS011;54898;40.918;14.476;2022-08-19T06:45:06;27.27;;;8.88;;
59520;SDS011;54898;40.918;14.476;2022-08-19T06:47:34;36.83;;;9.80;;
59520;SDS011;54898;40.918;14.476;2022-08-19T06:50:00;26.50;;;8.95;;
59520;SDS011;54898;40.918;14.476;2022-08-19T06:52:29;27.30;;;9.02;;
59520;SDS011;54898;40.918;14.476;2022-08-19T06:54:55;24.02;;;7.97;;
59520;SDS011;54898;40.918;14.476;2022-08-19T06:57:23;23.52;;;6.85;;
59520;SDS011;54898;40.918;14.476;2022-08-19T06:59:51;25.35;;;6.60;;
59520;SDS011;54898;40.918;14.476;2022-08-19T07:02:17;30.65;;;7.25;;
59520;SDS011;54898;40.918;14.476;2022-08-19T07:04:44;24.00;;;6.38;;
59520;SDS011;54898;40.918;14.476;2022-08-19T07:07:12;25.60;;;5.88;;
59520;SDS011;54898;40.918;14.476;2022-08-19T07:09:40;28.02;;;5.93;;
59520;SDS011;54898;40.918;14.476;2022-08-19T07:12:07;20.92;;;5.85;;
59520;SDS011;54898;40.918;14.476;2022-08-19T07:14:34;17.10;;;5.20;;
59520;SDS011;54898;40.918;14.476;2022-08-19T07:17:05;17.88;;;5.10;;
59520;SDS011;54898;40.918;14.476;2022-08-19T07:19:32;18.13;;;4.97;;
59520;SDS011;54898;40.918;14.476;2022-08-19T07:22:00;20.23;;;5.68;;
59520;SDS011;54898;40.918;14.476;2022-08-19T07:24:26;17.00;;;4.15;;
59520;SDS011;54898;40.918;14.476;2022-08-19T07:26:53;17.63;;;4.40;;
59520;SDS011;54898;40.918;14.476;2022-08-19T07:29:20;16.10;;;4.50;;
59520;SDS011;54898;40.918;14.476;2022-08-19T07:31:48;20.08;;;4.85;;
59520;SDS011;54898;40.918;14.476;2022-08-19T07:34:16;17.02;;;4.30;;
59520;SDS011;54898;40.918;14.476;2022-08-19T07:36:43;17.70;;;4.28;;
59520;SDS011;54898;40.918;14.476;2022-08-19T07:39:10;17.52;;;4.47;;
59520;SDS011;54898;40.918;14.476;2022-08-19T07:41:37;15.73;;;4.20;;
59520;SDS011;54898;40.918;14.476;2022-08-19T07:44:03;16.92;;;5.05;;
59520;SDS011;54898;40.918;14.476;2022-08-19T07:46:30;16.27;;;4.18;;
59520;SDS011;54898;40.918;14.476;2022-08-19T07:48:57;16.63;;;4.43;;
59520;SDS011;54898;40.918;14.476;2022-08-19T07:51:24;15.38;;;4.75;;
59520;SDS011;54898;40.918;14.476;2022-08-19T07:53:50;16.73;;;4.50;;
59520;SDS011;54898;40.918;14.476;2022-08-19T07:56:17;21.17;;;4.68;;
59520;SDS011;54898;40.918;14.476;2022-08-19T07:58:44;17.67;;;4.60;;
59520;SDS011;54898;40.918;14.476;2022-08-19T08:01:11;18.08;;;4.80;;
59520;SDS011;54898;40.918;14.476;2022-08-19T08:03:38;18.92;;;4.68;;
59520;SDS011;54898;40.918;14.476;2022-08-19T08:06:25;16.52;;;4.43;;
59520;SDS011;54898;40.918;14.476;2022-08-19T08:09:09;17.73;;;4.40;;
59520;SDS011;54898;40.918;14.476;2022-08-19T08:11:44;16.00;;;4.90;;
59520;SDS011;54898;40.918;14.476;2022-08-19T08:14:14;15.75;;;5.07;;
59520;SDS011;54898;40.918;14.476;2022-08-19T08:16:41;19.13;;;4.88;;
59520;SDS011;54898;40.918;14.476;2022-08-19T08:19:09;16.88;;;5.00;;
59520;SDS011;54898;40.918;14.476;2022-08-19T08:21:37;15.68;;;4.90;;
59520;SDS011;54898;40.918;14.476;2022-08-19T08:24:03;23.75;;;5.32;;
59520;SDS011;54898;40.918;14.476;2022-08-19T08:26:29;19.05;;;6.15;;
59520;SDS011;54898;40.918;14.476;2022-08-19T08:28:55;21.00;;;5.25;;
59520;SDS011;54898;40.918;14.476;2022-08-19T08:31:22;15.77;;;4.50;;
59520;SDS011;54898;40.918;14.476;2022-08-19T08:33:49;15.35;;;4.65;;
59520;SDS011;54898;40.918;14.476;2022-08-19T08:36:15;10.70;;;4.03;;
59520;SDS011;54898;40.918;14.476;2022-08-19T08:38:43;13.55;;;4.20;;
59520;SDS011;54898;40.918;14.476;2022-08-19T08:41:15;15.70;;;4.90;;
59520;SDS011;54898;40.918;14.476;2022-08-19T08:43:45;13.55;;;3.90;;
59520;SDS011;54898;40.918;14.476;2022-08-19T08:46:12;12.32;;;4.13;;
59520;SDS011;54898;40.918;14.476;2022-08-19T08:48:42;13.13;;;4.25;;
59520;SDS011;54898;40.918;14.476;2022-08-19T08:51:12;16.90;;;4.43;;
59520;SDS011;54898;40.918;14.476;2022-08-19T08:53:39;12.23;;;3.63;;
59520;SDS011;54898;40.918;14.476;2022-08-19T08:56:08;16.05;;;3.85;;
59520;SDS011;54898;40.918;14.476;2022-08-19T08:58:48;18.05;;;4.45;;
59520;SDS011;54898;40.918;14.476;2022-08-19T09:01:16;13.93;;;3.90;;
59520;SDS011;54898;40.918;14.476;2022-08-19T09:03:43;12.07;;;3.88;;
59520;SDS011;54898;40.918;14.476;2022-08-19T09:06:14;15.85;;;3.70;;
59520;SDS011;54898;40.918;14.476;2022-08-19T09:08:45;9.68;;;3.67;;
59520;SDS011;54898;40.918;14.476;2022-08-19T09:11:15;11.15;;;3.85;;
59520;SDS011;54898;40.918;14.476;2022-08-19T09:13:48;12.02;;;3.85;;
59520;SDS011;54898;40.918;14.476;2022-08-19T09:16:16;17.15;;;3.75;;
59520;SDS011;54898;40.918;14.476;2022-08-19T09:18:43;8.65;;;3.47;;
59520;SDS011;54898;40.918;14.476;2022-08-19T09:21:10;13.48;;;4.03;;
59520;SDS011;54898;40.918;14.476;2022-08-19T09:23:36;10.23;;;3.53;;
59520;SDS011;54898;40.918;14.476;2022-08-19T09:26:06;11.25;;;3.20;;
59520;SDS011;54898;40.918;14.476;2022-08-19T09:28:33;13.50;;;3.78;;
59520;SDS011;54898;40.918;14.476;2022-08-19T09:31:00;12.10;;;3.50;;
59520;SDS011;54898;40.918;14.476;2022-08-19T09:33:26;10.63;;;2.88;;
59520;SDS011;54898;40.918;14.476;2022-08-19T09:36:00;16.15;;;3.80;;
59520;SDS011;54898;40.918;14.476;2022-08-19T09:38:29;11.10;;;3.47;;
59520;SDS011;54898;40.918;14.476;2022-08-19T09:40:55;10.05;;;3.20;;
59520;SDS011;54898;40.918;14.476;2022-08-19T09:43:21;13.60;;;3.53;;
59520;SDS011;54898;40.918;14.476;2022-08-19T09:45:49;10.13;;;3.35;;
59520;SDS011;54898;40.918;14.476;2022-08-19T09:48:15;9.80;;;3.37;;
59520;SDS011;54898;40.918;14.476;2022-08-19T09:50:41;10.32;;;3.50;;
59520;SDS011;54898;40.918;14.476;2022-08-19T09:53:07;10.48;;;3.25;;
59520;SDS011;54898;40.918;14.476;2022-08-19T09:55:34;10.52;;;3.80;;
59520;SDS011;54898;40.918;14.476;2022-08-19T09:58:00;9.65;;;3.42;;
59520;SDS011;54898;40.918;14.476;2022-08-19T10:00:26;9.80;;;3.55;;
59520;SDS011;54898;40.918;14.476;2022-08-19T10:02:54;8.32;;;3.35;;
59520;SDS011;54898;40.918;14.476;2022-08-19T10:05:20;11.25;;;3.42;;
59520;SDS011;54898;40.918;14.476;2022-08-19T10:08:05;8.68;;;3.35;;
59520;SDS011;54898;40.918;14.476;2022-08-19T10:10:34;11.00;;;3.13;;
59520;SDS011;54898;40.918;14.476;2022-08-19T10:13:00;8.50;;;3.00;;
59520;SDS011;54898;40.918;14.476;2022-08-19T10:15:26;6.18;;;2.75;;
59520;SDS011;54898;40.918;14.476;2022-08-19T10:17:54;13.75;;;3.05;;
59520;SDS011;54898;40.918;14.476;2022-08-19T10:20:20;9.77;;;2.93;;
59520;SDS011;54898;40.918;14.476;2022-08-19T10:22:47;9.95;;;2.88;;
59520;SDS011;54898;40.918;14.476;2022-08-19T10:25:14;11.55;;;3.33;;
59520;SDS011;54898;40.918;14.476;2022-08-19T10:27:42;9.95;;;3.00;;
59520;SDS011;54898;40.918;14.476;2022-08-19T10:30:09;6.97;;;2.90;;
59520;SDS011;54898;40.918;14.476;2022-08-19T10:32:35;10.13;;;3.08;;
59520;SDS011;54898;40.918;14.476;2022-08-19T10:35:03;8.65;;;2.75;;
59520;SDS011;54898;40.918;14.476;2022-08-19T10:37:33;9.15;;;3.00;;
59520;SDS011;54898;40.918;14.476;2022-08-19T10:40:00;10.70;;;3.30;;
59520;SDS011;54898;40.918;14.476;2022-08-19T10:42:27;9.55;;;3.40;;
59520;SDS011;54898;40.918;14.476;2022-08-19T10:44:54;9.27;;;3.10;;
59520;SDS011;54898;40.918;14.476;2022-08-19T10:47:20;10.15;;;3.22;;
59520;SDS011;54898;40.918;14.476;2022-08-19T10:49:48;10.13;;;3.10;;
59520;SDS011;54898;40.918;14.476;2022-08-19T10:52:34;10.02;;;3.50;;
59520;SDS011;54898;40.918;14.476;2022-08-19T10:55:00;10.10;;;2.80;;
59520;SDS011;54898;40.918;14.476;2022-08-19T10:57:45;11.35;;;3.22;;
59520;SDS011;54898;40.918;14.476;2022-08-19T11:00:11;13.45;;;3.08;;
59520;SDS011;54898;40.918;14.476;2022-08-19T11:02:38;8.40;;;2.95;;
59520;SDS011;54898;40.918;14.476;2022-08-19T11:05:05;10.75;;;3.08;;
59520;SDS011;54898;40.918;14.476;2022-08-19T11:07:32;12.05;;;3.38;;
59520;SDS011;54898;40.918;14.476;2022-08-19T11:10:00;10.73;;;3.17;;
59520;SDS011;54898;40.918;14.476;2022-08-19T11:12:27;9.65;;;3.10;;
59520;SDS011;54898;40.918;14.476;2022-08-19T11:14:53;10.35;;;2.80;;
59520;SDS011;54898;40.918;14.476;2022-08-19T11:17:20;8.25;;;2.90;;
59520;SDS011;54898;40.918;14.476;2022-08-19T11:22:15;8.18;;;2.78;;
59520;SDS011;54898;40.918;14.476;2022-08-19T11:24:41;8.02;;;2.63;;
59520;SDS011;54898;40.918;14.476;2022-08-19T11:27:09;9.57;;;2.83;;
59520;SDS011;54898;40.918;14.476;2022-08-19T11:29:35;7.55;;;2.60;;
59520;SDS011;54898;40.918;14.476;2022-08-19T11:32:04;7.10;;;2.90;;
59520;SDS011;54898;40.918;14.476;2022-08-19T11:34:30;6.05;;;2.80;;
59520;SDS011;54898;40.918;14.476;2022-08-19T11:36:56;6.47;;;2.92;;
59520;SDS011;54898;40.918;14.476;2022-08-19T11:39:26;11.13;;;3.42;;
59520;SDS011;54898;40.918;14.476;2022-08-19T11:41:52;12.82;;;3.13;;
59520;SDS011;54898;40.918;14.476;2022-08-19T11:44:20;9.60;;;2.83;;
59520;SDS011;54898;40.918;14.476;2022-08-19T11:46:46;7.68;;;3.03;;
59520;SDS011;54898;40.918;14.476;2022-08-19T11:49:12;9.13;;;2.78;;
59520;SDS011;54898;40.918;14.476;2022-08-19T11:51:39;6.20;;;2.53;;
59520;SDS011;54898;40.918;14.476;2022-08-19T11:54:05;7.75;;;2.60;;
59520;SDS011;54898;40.918;14.476;2022-08-19T11:56:32;11.07;;;3.30;;
59520;SDS011;54898;40.918;14.476;2022-08-19T11:58:58;10.95;;;3.08;;
59520;SDS011;54898;40.918;14.476;2022-08-19T12:01:27;5.15;;;2.38;;
59520;SDS011;54898;40.918;14.476;2022-08-19T12:03:54;6.22;;;2.60;;
59520;SDS011;54898;40.918;14.476;2022-08-19T12:06:21;6.82;;;2.45;;
59520;SDS011;54898;40.918;14.476;2022-08-19T12:08:54;8.07;;;2.30;;
59520;SDS011;54898;40.918;14.476;2022-08-19T12:11:21;6.82;;;2.38;;
59520;SDS011;54898;40.918;14.476;2022-08-19T12:13:47;10.02;;;3.10;;
59520;SDS011;54898;40.918;14.476;2022-08-19T12:16:14;8.40;;;2.72;;
59520;SDS011;54898;40.918;14.476;2022-08-19T12:18:42;8.77;;;2.70;;
59520;SDS011;54898;40.918;14.476;2022-08-19T12:21:12;8.90;;;2.72;;
59520;SDS011;54898;40.918;14.476;2022-08-19T12:23:39;6.57;;;2.38;;
59520;SDS011;54898;40.918;14.476;2022-08-19T12:26:05;7.97;;;2.50;;
59520;SDS011;54898;40.918;14.476;2022-08-19T12:28:31;6.97;;;2.40;;
59520;SDS011;54898;40.918;14.476;2022-08-19T12:30:58;7.13;;;2.67;;
59520;SDS011;54898;40.918;14.476;2022-08-19T12:33:24;6.07;;;2.50;;
59520;SDS011;54898;40.918;14.476;2022-08-19T12:35:55;8.10;;;2.50;;
59520;SDS011;54898;40.918;14.476;2022-08-19T12:38:26;10.25;;;2.80;;
59520;SDS011;54898;40.918;14.476;2022-08-19T12:40:52;6.72;;;2.60;;
59520;SDS011;54898;40.918;14.476;2022-08-19T12:43:18;8.60;;;3.13;;
59520;SDS011;54898;40.918;14.476;2022-08-19T12:45:46;6.45;;;2.72;;
59520;SDS011;54898;40.918;14.476;2022-08-19T12:48:12;9.23;;;2.67;;
59520;SDS011;54898;40.918;14.476;2022-08-19T12:50:38;8.18;;;2.42;;
59520;SDS011;54898;40.918;14.476;2022-08-19T12:53:06;8.23;;;2.47;;
59520;SDS011;54898;40.918;14.476;2022-08-19T12:55:32;8.40;;;2.65;;
59520;SDS011;54898;40.918;14.476;2022-08-19T12:57:59;4.93;;;2.38;;
59520;SDS011;54898;40.918;14.476;2022-08-19T13:00:27;9.43;;;2.83;;
59520;SDS011;54898;40.918;14.476;2022-08-19T13:02:53;7.20;;;2.60;;
59520;SDS011;54898;40.918;14.476;2022-08-19T13:05:20;8.02;;;2.80;;
59520;SDS011;54898;40.918;14.476;2022-08-19T13:07:48;8.23;;;2.55;;
59520;SDS011;54898;40.918;14.476;2022-08-19T13:10:18;10.50;;;2.95;;
59520;SDS011;54898;40.918;14.476;2022-08-19T13:12:46;9.30;;;2.75;;
59520;SDS011;54898;40.918;14.476;2022-08-19T13:15:13;9.38;;;2.53;;
59520;SDS011;54898;40.918;14.476;2022-08-19T13:17:39;6.32;;;2.55;;
59520;SDS011;54898;40.918;14.476;2022-08-19T13:20:06;5.82;;;2.42;;
59520;SDS011;54898;40.918;14.476;2022-08-19T13:22:33;7.07;;;2.40;;
59520;SDS011;54898;40.918;14.476;2022-08-19T13:25:01;7.78;;;2.42;;
59520;SDS011;54898;40.918;14.476;2022-08-19T13:27:29;5.65;;;2.83;;
59520;SDS011;54898;40.918;14.476;2022-08-19T13:29:55;9.57;;;2.78;;
59520;SDS011;54898;40.918;14.476;2022-08-19T13:32:40;6.78;;;2.90;;
59520;SDS011;54898;40.918;14.476;2022-08-19T13:35:24;9.10;;;2.88;;
59520;SDS011;54898;40.918;14.476;2022-08-19T13:37:50;6.20;;;2.67;;
59520;SDS011;54898;40.918;14.476;2022-08-19T13:40:18;8.10;;;3.25;;
59520;SDS011;54898;40.918;14.476;2022-08-19T13:42:46;9.43;;;2.65;;
59520;SDS011;54898;40.918;14.476;2022-08-19T13:45:13;7.90;;;2.60;;
59520;SDS011;54898;40.918;14.476;2022-08-19T13:47:41;9.07;;;2.63;;
59520;SDS011;54898;40.918;14.476;2022-08-19T13:50:11;9.07;;;2.80;;
59520;SDS011;54898;40.918;14.476;2022-08-19T13:52:38;7.18;;;2.70;;
59520;SDS011;54898;40.918;14.476;2022-08-19T13:55:05;6.10;;;2.88;;
59520;SDS011;54898;40.918;14.476;2022-08-19T13:57:32;6.88;;;2.70;;
59520;SDS011;54898;40.918;14.476;2022-08-19T14:00:00;7.05;;;2.60;;
59520;SDS011;54898;40.918;14.476;2022-08-19T14:02:27;9.25;;;2.70;;
59520;SDS011;54898;40.918;14.476;2022-08-19T14:04:53;11.05;;;2.90;;
59520;SDS011;54898;40.918;14.476;2022-08-19T14:07:19;10.20;;;3.10;;
59520;SDS011;54898;40.918;14.476;2022-08-19T14:09:46;10.57;;;3.15;;
59520;SDS011;54898;40.918;14.476;2022-08-19T14:12:12;10.23;;;3.03;;
59520;SDS011;54898;40.918;14.476;2022-08-19T14:14:38;5.40;;;2.60;;
59520;SDS011;54898;40.918;14.476;2022-08-19T14:17:07;9.90;;;2.90;;
59520;SDS011;54898;40.918;14.476;2022-08-19T14:19:33;8.25;;;2.92;;
59520;SDS011;54898;40.918;14.476;2022-08-19T14:21:59;5.78;;;2.53;;
59520;SDS011;54898;40.918;14.476;2022-08-19T14:24:25;5.72;;;2.47;;
59520;SDS011;54898;40.918;14.476;2022-08-19T14:26:51;13.65;;;3.30;;
59520;SDS011;54898;40.918;14.476;2022-08-19T14:29:17;10.57;;;2.72;;
59520;SDS011;54898;40.918;14.476;2022-08-19T14:31:44;8.73;;;2.90;;
59520;SDS011;54898;40.918;14.476;2022-08-19T14:34:11;8.95;;;2.60;;
59520;SDS011;54898;40.918;14.476;2022-08-19T14:36:38;8.00;;;2.67;;
59520;SDS011;54898;40.918;14.476;2022-08-19T14:39:04;11.65;;;3.03;;
59520;SDS011;54898;40.918;14.476;2022-08-19T14:41:30;7.63;;;2.80;;
59520;SDS011;54898;40.918;14.476;2022-08-19T14:43:57;9.00;;;3.30;;
59520;SDS011;54898;40.918;14.476;2022-08-19T14:46:23;6.90;;;2.70;;
59520;SDS011;54898;40.918;14.476;2022-08-19T14:48:51;7.15;;;3.03;;
59520;SDS011;54898;40.918;14.476;2022-08-19T14:51:19;10.77;;;3.08;;
59520;SDS011;54898;40.918;14.476;2022-08-19T14:53:46;10.52;;;2.80;;